Parker, Minnesota
Current Conditions -  °F | °C
As of 10:13 AM on Thursday 29 Jan 2015 (Local Time) from KLXL Reporting Station
Overcast Overcast  
Wind Chill: 11°   Ceiling: 1800
Heat Index: 23°   Visibility: 10mi
Dew Point: 18°   Wind: 13mph
Humidity: 80%   Direction: 320°NW
Pressure: 30.26"   Gusts: 18mph
Location:  46.0639°N, 94.5189°W
Report Text: KLXL 291613Z AUTO 32011G16KT 10SM OVC018 M05/M08 A3026 RMK AO2
Loading
Personal Weather Stations






























Interactive Weather Map New forecast layout! Learn more

10-Day Weather Forecast

Advertisements
Track Severe Weather on mobile